Latest Weather Observations for Holsworthy

IDN60901

Issued at 5:51 pm EDT Saturday 28 February 2015 (issued every 10 minutes, with the page automatically refreshed every 10 minutes)

About weather observations | Map of Sydney area stations | Latest observations for Sydney area | Other Formats
Station Details ID: 066161 Name: HOLSWORTHY AERODROME AWS Lat: -33.99 Lon: 150.95 Height: 68.16 m
Data from the previous 72 hours. | See also: Recent months at Holsworthy
Date/Time
EDT
Tmp

°C
App
Tmp
°C
Dew
Point
°C
Rel
Hum
%
Delta-T

°C
Wind Press
QNH
hPa
Press
MSL
hPa
Rain
since
9 am
mm
Dir
 
Spd
km/h
Gust
km/h
Spd
kts
Gust
kts
28/05:30pm 27.5 27.7 19.3 61 5.3 ENE 17 26 9 14 1007.5 1007.2 0.0
28/05:00pm 27.7 27.2 18.7 58 5.8 ENE 19 24 10 13 1007.5 1007.2 0.0
28/04:30pm 27.4 27.0 18.9 59 5.5 E 19 24 10 13 1007.5 1007.2 0.0
28/04:00pm 27.4 27.0 18.9 59 5.5 E 19 24 10 13 1007.6 1007.3 0.0
28/03:30pm 27.7 27.0 18.7 58 5.8 E 20 26 11 14 1007.9 1007.6 0.0
28/03:00pm 27.7 27.7 19.0 59 5.6 E 17 24 9 13 1008.5 1008.2 0.0
28/02:30pm 28.0 28.6 18.7 57 6.0 E 13 19 7 10 1008.5 1008.2 0.0
28/02:00pm 28.2 29.0 17.4 52 6.8 ENE 9 19 5 10 1008.9 1008.6 0.0
28/01:30pm 27.5 27.1 16.1 49 7.0 NNE 13 19 7 10 1009.4 1009.1 0.0
28/01:00pm 26.8 27.5 17.0 55 6.1 NNE 9 15 5 8 1009.7 1009.4 0.0
28/12:30pm 26.8 27.4 17.6 57 5.8 N 11 19 6 10 1010.0 1009.7 0.0
28/12:00pm 26.0 27.3 19.4 67 4.3 NE 11 17 6 9 1010.6 1010.3 0.0
28/11:30am 24.7 26.3 19.1 71 3.6 N 9 15 5 8 1010.8 1010.5 0.0
28/11:00am 23.6 25.6 19.1 76 2.9 N 7 13 4 7 1011.2 1010.9 0.0
28/10:30am 22.5 25.9 19.3 82 2.0 CALM 0 0 0 0 1011.3 1011.0 0.0
28/10:00am 21.7 25.0 20.0 90 1.1 WSW 2 7 1 4 1011.3 1011.0 0.0
28/09:30am 20.8 23.1 19.5 92 0.8 WNW 6 7 3 4 1011.3 1011.0 0.0
28/09:00am 20.4 23.5 19.4 94 0.6 NW 2 6 1 3 1011.2 1010.9 0.0
28/08:30am 19.9 23.2 19.2 96 0.4 CALM 0 0 0 0 1011.1 1010.8 0.0
28/08:00am 19.1 22.1 18.4 96 0.4 CALM 0 0 0 0 1010.9 1010.6 0.0
28/07:30am 18.8 21.7 18.1 96 0.4 CALM 0 0 0 0 1010.6 1010.3 0.0
28/07:00am 17.6 19.5 16.8 95 0.5 SW 2 9 1 5 1010.6 1010.3 0.0
28/06:30am 17.9 20.3 16.9 94 0.6 CALM 0 0 0 0 1010.3 1010.0 0.0
28/05:30am 18.1 19.3 17.3 95 0.5 SE 7 7 4 4 1009.8 1009.5 0.0
28/05:00am 18.2 19.6 17.4 95 0.5 SE 6 7 3 4 1009.6 1009.3 0.0
28/04:30am 18.6 20.0 17.8 95 0.5 ESE 7 9 4 5 1009.5 1009.2 0.0
28/04:00am 18.6 20.2 17.8 95 0.5 SE 6 7 3 4 1009.8 1009.5 0.0
28/03:30am 18.5 19.0 17.5 94 0.6 SE 11 11 6 6 1009.9 1009.6 0.0
28/03:00am 18.9 20.5 17.9 94 0.6 ESE 6 7 3 4 1010.0 1009.7 0.0
28/02:30am 18.9 21.6 17.7 93 0.7 CALM 0 0 0 0 1010.0 1009.7 0.0
28/01:30am 19.6 21.8 18.4 93 0.7 ESE 4 7 2 4 1010.5 1010.2 0.0
28/01:00am 19.9 23.0 18.6 92 0.8 CALM 0 0 0 0 1010.7 1010.4 0.0
28/12:30am 19.9 22.9 18.4 91 0.9 CALM 0 0 0 0 1010.9 1010.6 0.0
 
Date/Time
EDT
Tmp

°C
App
Tmp
°C
Dew
Point
°C
Rel
Hum
%
Delta-T

°C
Wind Press
QNH
hPa
Press
MSL
hPa
Rain
since
9 am
mm
Dir
 
Spd
km/h
Gust
km/h
Spd
kts
Gust
kts
27/11:30pm 20.1 23.2 18.6 91 0.9 CALM 0 0 0 0 1011.5 1011.2 0.0
27/11:00pm 20.5 23.1 18.4 88 1.3 E 2 6 1 3 1011.4 1011.1 0.0
27/10:30pm 21.2 23.3 18.9 87 1.5 SE 6 7 3 4 1011.4 1011.1 0.0
27/10:00pm 21.4 23.5 19.0 86 1.5 SE 6 7 3 4 1011.4 1011.1 0.0
27/09:30pm 21.6 23.5 19.0 85 1.6 ESE 7 9 4 5 1011.1 1010.8 0.0
27/09:00pm 22.0 23.5 18.8 82 2.0 ESE 9 11 5 6 1010.8 1010.5 0.0
27/08:30pm 22.3 23.4 18.9 81 2.2 ESE 11 15 6 8 1010.3 1010.0 0.0
27/08:00pm 22.7 23.4 18.9 79 2.4 ESE 13 17 7 9 1010.0 1009.7 0.0
27/07:30pm 23.3 24.3 18.6 75 3.0 ESE 11 15 6 8 1009.6 1009.3 0.0
27/07:00pm 23.9 23.2 17.4 67 4.0 E 17 20 9 11 1009.2 1008.9 0.0
27/06:30pm 24.7 25.1 18.9 70 3.7 ENE 15 20 8 11 1008.9 1008.6 0.0
27/06:00pm 25.1 25.3 18.5 67 4.2 E 15 20 8 11 1008.8 1008.5 0.0
27/05:30pm 25.5 25.0 17.7 62 4.9 E 17 26 9 14 1008.8 1008.5 0.0
27/05:00pm 26.0 25.2 17.9 61 5.1 E 19 24 10 13 1008.7 1008.4 0.0
27/04:30pm 26.4 25.8 17.5 58 5.6 E 17 24 9 13 1008.7 1008.4 0.0
27/04:00pm 26.2 25.2 17.6 59 5.4 E 19 28 10 15 1008.8 1008.5 0.0
27/03:30pm 26.4 25.6 17.2 57 5.8 E 17 24 9 13 1009.2 1008.9 0.0
27/03:00pm 26.4 25.8 17.5 58 5.6 SE 17 26 9 14 1009.5 1009.2 0.0
27/02:30pm 26.1 25.3 17.2 58 5.6 SE 17 24 9 13 1009.8 1009.5 0.0
27/02:00pm 26.4 26.0 18.0 60 5.3 SE 17 20 9 11 1009.8 1009.5 0.0
27/01:30pm 26.2 26.3 18.3 61 5.0 SE 15 19 8 10 1009.9 1009.6 0.0
27/01:00pm 25.2 24.7 17.7 63 4.7 SSE 17 20 9 11 1010.4 1010.1 0.0
27/12:30pm 25.5 26.3 18.2 64 4.6 SE 11 15 6 8 1010.6 1010.3 0.0
27/12:00pm 25.2 25.4 17.7 63 4.7 E 13 20 7 11 1011.0 1010.7 0.0
27/11:30am 24.9 25.3 18.1 66 4.3 SSE 13 19 7 10 1011.1 1010.8 0.0
27/11:00am 24.1 25.1 18.7 72 3.4 S 11 17 6 9 1011.5 1011.2 0.0
27/10:30am 25.1 26.2 19.7 72 3.5 SSE 13 28 7 15 1011.5 1011.2 0.0
27/10:00am 22.7 24.3 19.1 80 2.3 SSE 9 13 5 7 1011.6 1011.3 0.0
27/09:30am 22.2 23.8 19.2 83 1.9 WSW 9 13 5 7 1011.5 1011.2 0.0
27/09:00am 19.8 21.7 18.5 92 0.8 W 6 9 3 5 1011.3 1011.0 0.8
27/08:30am 18.4 18.9 17.4 94 0.6 WSW 11 15 6 8 1011.2 1010.9 0.8
27/08:00am 18.0 17.9 17.0 94 0.6 SW 13 19 7 10 1011.1 1010.8 0.8
27/07:30am 17.6 17.1 16.8 95 0.5 SW 15 20 8 11 1010.7 1010.4 0.8
27/07:00am 17.3 17.5 16.7 96 0.4 SW 11 15 6 8 1010.4 1010.1 0.8
27/06:30am 17.0 17.1 16.4 96 0.4 WSW 11 13 6 7 1010.0 1009.7 0.8
27/06:00am 16.8 16.8 16.2 96 0.4 WSW 11 13 6 7 1009.6 1009.3 0.8
27/05:30am 16.9 16.9 16.3 96 0.4 SW 11 15 6 8 1009.5 1009.2 0.8
27/05:00am 17.0 17.1 16.4 96 0.4 WSW 11 13 6 7 1009.2 1008.9 0.8
27/04:30am 17.3 17.5 16.7 96 0.4 WSW 11 15 6 8 1009.0 1008.7 0.8
27/04:00am 17.6 17.9 17.0 96 0.4 WSW 11 13 6 7 1008.9 1008.6 0.8
27/03:30am 17.7 18.3 16.9 95 0.5 WSW 9 11 5 6 1009.0 1008.7 0.8
27/03:00am 18.0 18.0 17.2 95 0.5 WSW 13 15 7 8 1009.0 1008.7 0.8
27/02:30am 18.1 18.1 17.3 95 0.5 SW 13 19 7 10 1009.0 1008.7 0.8
27/02:00am 18.5 19.1 17.7 95 0.5 WSW 11 13 6 7 1009.3 1009.0 0.8
27/01:30am 18.9 20.0 18.1 95 0.5 SW 9 11 5 6 1009.5 1009.2 0.8
27/01:00am 19.3 20.6 18.5 95 0.5 SSW 9 13 5 7 1009.7 1009.4 0.8
27/12:30am 19.3 20.2 18.5 95 0.5 SW 11 15 6 8 1009.6 1009.3 0.8
27/12:00am 19.8 20.8 18.6 93 0.8 WSW 11 17 6 9 1009.5 1009.2 0.8
 
Date/Time
EDT
Tmp

°C
App
Tmp
°C
Dew
Point
°C
Rel
Hum
%
Delta-T

°C
Wind Press
QNH
hPa
Press
MSL
hPa
Rain
since
9 am
mm
Dir
 
Spd
km/h
Gust
km/h
Spd
kts
Gust
kts
26/11:30pm 20.4 21.2 19.1 92 0.8 S 13 17 7 9 1009.6 1009.3 0.6
26/11:00pm 21.0 21.7 18.9 88 1.3 SW 13 26 7 14 1009.5 1009.2 0.6
26/10:30pm 20.6 21.9 19.4 93 0.8 NNW 11 15 6 8 1009.5 1009.2 0.6
26/10:00pm 21.2 23.9 19.5 90 1.1 NE 4 7 2 4 1009.7 1009.4 0.6
26/09:30pm 21.7 23.8 19.4 87 1.5 SSE 7 19 4 10 1010.2 1009.9 0.6
26/09:00pm 22.7 24.8 19.3 81 2.2 NW 7 13 4 7 1010.0 1009.7 0.6
26/08:30pm 21.3 24.3 19.2 88 1.3 SW 2 11 1 6 1008.9 1008.6 0.6
26/08:00pm 21.9 24.1 20.4 91 1.0 ENE 9 15 5 8 1008.2 1007.9 0.6
26/07:30pm 21.5 22.3 19.1 86 1.5 N 13 17 7 9 1006.9 1006.6 0.6
26/07:00pm 22.3 23.5 20.0 87 1.5 S 13 19 7 10 1007.1 1006.8 0.4
26/06:30pm 23.9 25.7 19.6 77 2.8 WSW 9 15 5 8 1007.4 1007.1 0.0
26/06:00pm 24.6 26.6 19.2 72 3.5 SW 7 11 4 6 1006.8 1006.5 0.0
26/05:30pm 25.4 26.5 18.8 67 4.2 E 11 13 6 7 1006.4 1006.1 0.0
26/05:00pm 26.2 27.4 18.3 61 5.0 NE 9 13 5 7 1006.4 1006.1 0.0
26/04:30pm 26.1 27.4 17.5 59 5.4 NE 7 9 4 5 1006.6 1006.3 0.0
26/04:00pm 26.1 27.4 17.5 59 5.4 E 7 11 4 6 1006.7 1006.4 0.0
26/03:30pm 25.9 27.3 17.8 61 5.1 NNW 7 13 4 7 1007.3 1007.0 0.0
26/03:00pm 25.9 27.6 18.1 62 5.0 E 6 13 3 7 1007.3 1007.0 0.0
26/02:30pm 25.0 26.3 18.4 66 4.2 NE 9 15 5 8 1007.8 1007.5 0.0
26/02:00pm 25.4 27.6 19.1 68 4.1 NE 6 13 3 7 1008.0 1007.7 0.0
26/01:30pm 24.7 25.8 17.9 66 4.3 NNE 9 13 5 7 1008.4 1008.1 0.0
26/01:00pm 23.8 25.0 18.2 71 3.5 N 9 17 5 9 1009.0 1008.7 0.0
26/12:30pm 23.2 24.9 18.1 73 3.2 N 6 11 3 6 1009.5 1009.2 0.0
26/12:00pm 22.7 23.6 17.6 73 3.2 N 9 13 5 7 1010.0 1009.7 0.0
26/11:30am 23.0 24.5 18.1 74 3.1 NNW 7 11 4 6 1010.5 1010.2 0.0
26/11:00am 22.5 23.3 18.1 76 2.8 N 11 19 6 10 1010.7 1010.4 0.0
26/10:30am 22.2 23.8 18.2 78 2.5 NW 7 11 4 6 1011.0 1010.7 0.0
26/10:00am 21.5 23.1 18.3 82 2.0 WSW 7 9 4 5 1011.1 1010.8 0.0
26/09:30am 20.0 20.9 17.6 86 1.5 W 9 13 5 7 1011.2 1010.9 0.0
26/09:00am 19.2 20.0 17.3 89 1.2 WSW 9 13 5 7 1011.2 1010.9 20.0
26/08:30am 18.6 19.4 17.4 93 0.7 WSW 9 13 5 7 1011.3 1011.0 20.0
26/08:00am 18.5 19.3 17.3 93 0.7 SW 9 13 5 7 1011.0 1010.7 20.0
26/07:30am 18.2 19.0 17.2 94 0.6 WSW 9 11 5 6 1011.0 1010.7 20.0
26/07:00am 18.1 18.7 16.9 93 0.7 WSW 9 11 5 6 1010.8 1010.5 20.0
26/06:30am 18.2 19.1 16.7 91 0.9 WSW 7 9 4 5 1010.6 1010.3 20.0
26/06:00am 18.4 19.5 16.6 89 1.1 W 6 9 3 5 1010.5 1010.2 20.0
26/05:30am 18.7 19.8 16.7 88 1.2 WSW 6 7 3 4 1010.5 1010.2 20.0
26/05:00am 18.6 19.3 16.2 86 1.4 SW 7 9 4 5 1010.5 1010.2 20.0
26/04:30am 18.5 19.6 16.5 88 1.2 SW 6 9 3 5 1010.8 1010.5 20.0
26/04:00am 18.3 19.4 16.5 89 1.1 WNW 6 7 3 4 1011.0 1010.7 20.0
26/03:30am 18.3 20.0 16.3 88 1.2 NNW 2 6 1 3 1011.0 1010.7 20.0
26/03:00am 18.6 20.0 16.4 87 1.3 S 4 9 2 5 1011.3 1011.0 20.0
26/02:30am 18.7 18.7 16.3 86 1.4 S 11 15 6 8 1011.5 1011.2 20.0
26/02:00am 18.5 18.8 15.9 85 1.5 SSW 9 13 5 7 1012.1 1011.8 20.0
26/01:30am 18.6 18.9 16.0 85 1.5 SW 9 11 5 6 1012.6 1012.3 20.0
26/01:00am 18.7 19.0 15.9 84 1.7 WSW 9 13 5 7 1013.0 1012.7 20.0
26/12:30am 18.7 18.6 15.9 84 1.7 WSW 11 13 6 7 1013.2 1012.9 20.0
26/12:00am 18.8 19.1 15.9 83 1.7 WSW 9 13 5 7 1013.5 1013.2 20.0
 
Date/Time
EDT
Tmp

°C
App
Tmp
°C
Dew
Point
°C
Rel
Hum
%
Delta-T

°C
Wind Press
QNH
hPa
Press
MSL
hPa
Rain
since
9 am
mm
Dir
 
Spd
km/h
Gust
km/h
Spd
kts
Gust
kts
25/11:30pm 18.9 18.7 15.8 82 1.8 SW 11 13 6 7 1013.6 1013.3 20.0
25/11:00pm 19.3 19.2 16.0 81 2.0 WSW 11 20 6 11 1013.9 1013.6 20.0
25/10:30pm 18.8 19.2 16.2 85 1.6 SW 9 13 5 7 1014.1 1013.8 20.0
25/10:00pm 19.5 19.9 16.2 81 2.0 SW 9 20 5 11 1014.2 1013.9 20.0
25/09:30pm 20.3 20.9 15.9 76 2.6 ENE 7 19 4 10 1014.2 1013.9 20.0
25/09:00pm 20.1 20.7 15.9 77 2.5 W 7 19 4 10 1014.5 1014.2 20.0
25/08:30pm 20.5 21.4 16.1 76 2.6 NNE 6 13 3 7 1014.4 1014.1 20.0
25/08:00pm 20.3 20.6 15.9 76 2.6 S 9 13 5 7 1014.5 1014.2 20.0
25/07:30pm 20.4 21.1 16.2 77 2.5 S 7 9 4 5 1014.6 1014.3 20.0
25/07:00pm 20.6 21.0 16.2 76 2.6 S 9 15 5 8 1014.9 1014.6 20.0
25/06:30pm 20.7 20.3 16.3 76 2.7 SSE 13 19 7 10 1015.2 1014.9 20.0
25/06:00pm 20.9 20.3 16.7 77 2.6 SSE 15 20 8 11 1015.2 1014.9 20.0

Latest Capital City Observations: Canberra | Sydney | Melbourne | Brisbane | Adelaide | Perth | Hobart | Darwin

Other Formats:

Comma delimited format used in spreadsheet applications
http://www.bom.gov.au/fwo/IDN60901/IDN60901.95761.axf

JavaScript Object Notation format (JSON) in row-major order
http://www.bom.gov.au/fwo/IDN60901/IDN60901.95761.json